Loughrea, Ireland
Current Conditions -  °F | °C
As of 1:00 AM on Monday 22 Dec 2014 (Local Time) from EINN Reporting Station
Overcast Overcast  
Wind Chill: 54°   Ceiling: 1400
Heat Index: 54°   Visibility: 6mi
Dew Point: 50°   Wind: 23mph
Humidity: 88%   Direction: 220°SW
Pressure: 29.97"   Gusts: 35mph
Location:  53.2°N, 8.57°W
Report Text: EINN 220100Z 22020G30KT 9999 OVC014 12/10 Q1015 TEMPO 3000 BKN007
Loading
Personal Weather Stations






























Interactive Weather Map New forecast layout! Learn more

10-Day Weather Forecast

Advertisements
Track Severe Weather on mobile